Time;durP1;ratioP1;P1;durP2;ratioP2;P2;SDS_P1;SDS_P2;PMS_P1;PMS_P2;Temp;Humidity;BMP_temperature;BMP_pressure;BME280_temperature;BME280_humidity;BME280_pressure;Samples;Min_cycle;Max_cycle;Signal;HPM_P1;HPM_P2
2022/04/24 00:02:22;;;;;;;9.25;6.70;;;9.90;99.90;;;;;;5096404;28;20502;-58
2022/04/24 00:04:48;;;;;;;8.50;6.40;;;9.90;99.90;;;;;;5096344;28;20459;-57
2022/04/24 00:07:13;;;;;;;9.32;7.25;;;9.90;99.90;;;;;;5096472;28;20032;-58
2022/04/24 00:09:39;;;;;;;11.93;8.00;;;10.00;99.90;;;;;;5096380;28;20036;-57
2022/04/24 00:12:06;;;;;;;7.55;6.75;;;9.80;99.90;;;;;;5095965;28;20040;-59
2022/04/24 00:14:32;;;;;;;8.88;6.65;;;9.70;99.90;;;;;;5094997;28;20501;-58
2022/04/24 00:16:58;;;;;;;9.90;7.32;;;9.80;99.90;;;;;;5094915;28;20051;-60
2022/04/24 00:19:23;;;;;;;7.78;6.72;;;9.90;99.90;;;;;;5095801;28;20040;-60
2022/04/24 00:21:50;;;;;;;9.85;7.05;;;9.80;99.90;;;;;;5094760;28;20118;-59
2022/04/24 00:24:16;;;;;;;9.25;6.60;;;9.80;99.90;;;;;;5095842;28;20496;-59
2022/04/24 00:26:41;;;;;;;7.80;6.65;;;9.70;99.90;;;;;;5094368;28;20127;-60
2022/04/24 00:29:08;;;;;;;8.65;6.40;;;;;;;;;;5095689;28;20076;-61
2022/04/24 00:31:34;;;;;;;9.05;6.57;;;9.50;99.90;;;;;;5094794;28;20039;-60
2022/04/24 00:33:59;;;;;;;8.32;6.30;;;9.50;99.90;;;;;;5094150;28;20040;-60
2022/04/24 00:36:25;;;;;;;12.10;6.45;;;9.50;99.90;;;;;;5077538;28;20047;-60
2022/04/24 00:38:50;;;;;;;9.57;6.13;;;9.70;99.90;;;;;;5094111;28;20184;-61
2022/04/24 00:41:16;;;;;;;10.25;6.43;;;9.50;99.90;;;;;;5095497;28;20043;-61
2022/04/24 00:43:52;;;;;;;9.80;6.28;;;9.50;99.90;;;;;;5095273;28;20040;-61
2022/04/24 00:46:36;;;;;;;8.57;6.28;;;9.50;99.90;;;;;;5093385;28;20040;-60
2022/04/24 00:49:02;;;;;;;8.20;5.53;;;9.60;99.90;;;;;;5095014;28;20032;-60
2022/04/24 00:51:29;;;;;;;9.73;6.15;;;9.30;99.90;;;;;;5095259;28;20402;-60
2022/04/24 00:53:56;;;;;;;8.18;6.45;;;9.40;99.90;;;;;;5094767;28;20103;-60
2022/04/24 00:56:23;;;;;;;9.15;5.80;;;9.50;99.90;;;;;;5095334;28;20044;-60
2022/04/24 00:58:49;;;;;;;10.75;6.65;;;9.50;99.90;;;;;;5095011;28;20046;-60
2022/04/24 01:01:15;;;;;;;10.27;7.13;;;9.30;99.90;;;;;;5095399;28;20058;-60
2022/04/24 01:03:41;;;;;;;10.15;7.00;;;9.30;99.90;;;;;;5095703;28;20124;-60
2022/04/24 01:06:06;;;;;;;10.85;6.35;;;9.30;99.90;;;;;;5094531;28;20040;-60
2022/04/24 01:08:35;;;;;;;11.73;6.35;;;9.40;99.90;;;;;;5095215;28;20413;-59
2022/04/24 01:11:00;;;;;;;8.18;6.75;;;9.30;99.90;;;;;;5095324;28;20035;-60
2022/04/24 01:13:26;;;;;;;8.95;6.55;;;9.30;99.90;;;;;;5094634;28;20035;-65
2022/04/24 01:15:52;;;;;;;8.95;7.13;;;;;;;;;;5094866;28;20432;-60
2022/04/24 01:18:18;;;;;;;9.93;7.10;;;9.00;99.90;;;;;;5093742;28;20092;-60
2022/04/24 01:20:44;;;;;;;8.57;6.63;;;9.20;99.90;;;;;;5093933;28;20402;-60
2022/04/24 01:23:09;;;;;;;10.82;6.72;;;9.10;99.90;;;;;;5094613;28;20036;-60
2022/04/24 01:25:35;;;;;;;9.00;6.88;;;9.10;99.90;;;;;;5094033;28;20486;-62
2022/04/24 01:28:06;;;;;;;8.65;7.18;;;9.00;99.90;;;;;;5094662;28;20040;-58
2022/04/24 01:30:32;;;;;;;9.10;6.45;;;9.10;99.90;;;;;;5092951;28;20036;-57
2022/04/24 01:32:57;;;;;;;9.05;6.28;;;8.90;99.90;;;;;;5095021;28;20050;-56
2022/04/24 01:35:23;;;;;;;10.07;6.70;;;9.00;99.90;;;;;;5093659;28;20086;-59
2022/04/24 01:37:49;;;;;;;8.25;6.60;;;;;;;;;;5094584;28;20035;-57
2022/04/24 01:40:15;;;;;;;9.48;6.95;;;;;;;;;;5094373;28;20599;-59
2022/04/24 01:42:41;;;;;;;10.13;6.28;;;8.80;99.90;;;;;;5093422;28;20066;-54
2022/04/24 01:45:07;;;;;;;11.68;6.47;;;8.70;99.90;;;;;;5093019;28;20052;-58
2022/04/24 01:47:32;;;;;;;9.15;6.40;;;8.70;99.90;;;;;;5092694;28;20092;-57
2022/04/24 01:49:58;;;;;;;8.60;7.25;;;8.60;99.90;;;;;;5094154;28;20032;-57
2022/04/24 01:52:24;;;;;;;9.15;7.45;;;8.70;99.90;;;;;;5075613;28;20077;-56
2022/04/24 01:54:50;;;;;;;11.55;7.25;;;8.50;99.90;;;;;;5092653;28;20638;-59
2022/04/24 01:57:15;;;;;;;9.52;7.10;;;8.50;99.90;;;;;;5082512;28;20122;-57
2022/04/24 01:59:41;;;;;;;11.02;7.90;;;8.30;99.90;;;;;;5093260;28;20052;-56
2022/04/24 02:02:06;;;;;;;10.20;7.13;;;8.60;99.90;;;;;;5092542;28;20033;-60
2022/04/24 02:04:32;;;;;;;7.78;6.82;;;8.50;99.90;;;;;;5094403;28;20066;-60
2022/04/24 02:06:57;;;;;;;11.35;6.97;;;8.60;99.90;;;;;;5094101;28;20123;-59
2022/04/24 02:09:23;;;;;;;7.45;6.30;;;8.30;99.90;;;;;;5093977;28;20078;-60
2022/04/24 02:11:48;;;;;;;8.80;6.57;;;8.50;99.90;;;;;;5094043;28;20040;-59
2022/04/24 02:14:14;;;;;;;8.27;6.72;;;8.40;99.90;;;;;;5093675;28;20040;-60
2022/04/24 02:16:40;;;;;;;9.23;6.68;;;8.40;99.90;;;;;;5094385;28;20036;-59
2022/04/24 02:19:06;;;;;;;8.40;6.82;;;;;;;;;;5094898;28;20036;-61
2022/04/24 02:21:31;;;;;;;9.98;8.13;;;8.20;99.90;;;;;;5095124;28;20097;-62
2022/04/24 02:23:57;;;;;;;8.90;6.13;;;7.90;99.90;;;;;;5092923;28;20039;-62
2022/04/24 02:26:22;;;;;;;10.50;7.25;;;8.10;99.90;;;;;;5094366;28;20043;-61
2022/04/24 02:28:48;;;;;;;9.15;7.20;;;;;;;;;;5095810;28;20503;-61
2022/04/24 02:31:14;;;;;;;11.05;7.32;;;7.90;99.90;;;;;;5094348;28;20043;-62
2022/04/24 02:33:39;;;;;;;11.60;7.50;;;8.00;99.90;;;;;;5093241;28;20510;-61
2022/04/24 02:36:05;;;;;;;7.97;6.80;;;7.90;99.90;;;;;;5094983;28;20040;-62
2022/04/24 02:38:31;;;;;;;10.30;7.10;;;7.90;99.90;;;;;;5097717;28;20040;-62
2022/04/24 02:40:56;;;;;;;8.00;6.82;;;7.90;99.90;;;;;;5097544;28;20047;-62
2022/04/24 02:43:22;;;;;;;9.02;6.78;;;7.80;99.90;;;;;;5097386;28;20104;-61
2022/04/24 02:45:47;;;;;;;10.35;7.03;;;7.80;99.90;;;;;;5097257;28;20123;-62
2022/04/24 02:48:14;;;;;;;7.85;7.03;;;7.80;99.90;;;;;;5098331;28;20040;-61
2022/04/24 02:50:39;;;;;;;9.68;7.15;;;7.80;99.90;;;;;;5097967;28;20035;-61
2022/04/24 02:53:06;;;;;;;11.15;7.45;;;7.70;99.90;;;;;;5097594;28;20040;-62
2022/04/24 02:55:32;;;;;;;8.70;6.78;;;7.60;99.90;;;;;;5096687;28;20048;-62
2022/04/24 02:57:57;;;;;;;9.98;8.18;;;7.30;99.90;;;;;;5097077;28;20375;-61
2022/04/24 03:00:25;;;;;;;9.88;7.85;;;7.40;99.90;;;;;;5098460;28;20032;-61
2022/04/24 03:02:51;;;;;;;10.55;7.75;;;7.40;99.90;;;;;;5098255;28;20035;-61
2022/04/24 03:05:22;;;;;;;9.55;7.22;;;7.40;99.90;;;;;;5098079;28;20039;-61
2022/04/24 03:07:48;;;;;;;9.70;7.97;;;;;;;;;;5097151;28;20043;-62
2022/04/24 03:10:14;;;;;;;11.10;7.15;;;7.50;99.90;;;;;;5098293;28;20562;-62
2022/04/24 03:12:41;;;;;;;10.40;7.50;;;7.50;99.90;;;;;;5097158;28;20375;-61
2022/04/24 03:15:09;;;;;;;9.38;7.22;;;7.50;99.90;;;;;;5097035;28;20056;-61
2022/04/24 03:17:35;;;;;;;10.23;7.50;;;7.50;99.90;;;;;;5096801;28;20478;-61
2022/04/24 03:20:08;;;;;;;10.23;7.65;;;7.20;99.90;;;;;;5095941;28;20038;-61
2022/04/24 03:22:34;;;;;;;10.43;6.97;;;;;;;;;;5094228;28;20039;-61
2022/04/24 03:25:01;;;;;;;9.90;7.72;;;7.50;99.90;;;;;;5096560;28;20100;-61
2022/04/24 03:27:26;;;;;;;11.13;7.57;;;7.40;99.90;;;;;;5095988;28;20051;-60
2022/04/24 03:29:52;;;;;;;11.15;7.80;;;;;;;;;;5096791;28;20040;-60
2022/04/24 03:32:18;;;;;;;8.85;7.32;;;7.40;99.90;;;;;;5095906;28;20040;-60
2022/04/24 03:34:44;;;;;;;11.40;7.60;;;;;;;;;;5095184;28;20425;-59
2022/04/24 03:37:10;;;;;;;11.02;8.38;;;;;;;;;;5078904;28;20104;-59
2022/04/24 03:39:36;;;;;;;10.07;7.60;;;;;;;;;;5096860;28;20439;-60
2022/04/24 03:42:06;;;;;;;10.52;8.20;;;7.30;99.90;;;;;;5096237;28;20051;-60
2022/04/24 03:44:33;;;;;;;11.57;7.47;;;;;;;;;;5096828;28;20044;-59
2022/04/24 03:46:59;;;;;;;10.07;7.35;;;;;;;;;;5096628;28;20165;-60
2022/04/24 03:49:26;;;;;;;11.00;8.57;;;7.40;99.90;;;;;;5096757;28;20059;-60
2022/04/24 03:51:52;;;;;;;9.93;8.05;;;7.40;99.90;;;;;;5096479;28;20043;-59
2022/04/24 03:54:18;;;;;;;11.40;8.55;;;7.30;99.90;;;;;;5095034;28;20119;-60
2022/04/24 03:56:44;;;;;;;10.00;7.85;;;7.40;99.90;;;;;;5095242;28;20083;-59
2022/04/24 03:59:09;;;;;;;10.85;7.75;;;7.40;99.90;;;;;;5095222;28;20039;-60
2022/04/24 04:01:35;;;;;;;10.10;7.30;;;7.50;99.90;;;;;;5096393;28;20032;-59
2022/04/24 04:04:02;;;;;;;10.48;8.13;;;;;;;;;;5094718;28;20078;-59
2022/04/24 04:06:27;;;;;;;9.48;7.95;;;7.50;99.90;;;;;;5095661;28;20032;-58
2022/04/24 04:08:53;;;;;;;9.82;7.75;;;7.40;99.90;;;;;;5075669;28;20047;-57
2022/04/24 04:11:19;;;;;;;14.18;8.38;;;;;;;;;;5076557;28;20032;-61
2022/04/24 04:13:45;;;;;;;12.02;7.80;;;;;;;;;;5079463;28;20114;-61
2022/04/24 04:16:11;;;;;;;11.40;8.80;;;7.40;99.90;;;;;;5093117;28;20043;-60
2022/04/24 04:18:36;;;;;;;11.98;7.82;;;;;;;;;;5072247;28;20039;-62
2022/04/24 04:21:02;;;;;;;10.52;7.97;;;;;;;;;;5070589;28;20056;-61
2022/04/24 04:23:28;;;;;;;9.50;7.80;;;;;;;;;;5069423;28;20056;-59
2022/04/24 04:25:54;;;;;;;10.18;7.78;;;;;;;;;;5069301;28;20055;-60
2022/04/24 04:28:20;;;;;;;10.88;8.00;;;;;;;;;;5071045;28;20044;-60
2022/04/24 04:30:46;;;;;;;9.57;7.80;;;7.50;99.90;;;;;;5083032;28;20036;-60
2022/04/24 04:33:11;;;;;;;11.57;7.68;;;7.50;99.90;;;;;;5089570;28;20497;-60
2022/04/24 04:35:38;;;;;;;12.10;7.78;;;;;;;;;;5088798;28;20063;-61
2022/04/24 04:38:04;;;;;;;10.38;7.63;;;;;;;;;;5086470;28;20032;-60
2022/04/24 04:40:30;;;;;;;9.38;7.55;;;;;;;;;;5084394;28;20044;-61
2022/04/24 04:42:56;;;;;;;9.90;7.82;;;;;;;;;;5084937;28;20066;-61
2022/04/24 04:45:24;;;;;;;11.77;7.60;;;;;;;;;;5084702;28;20077;-61
2022/04/24 04:47:51;;;;;;;10.45;7.88;;;;;;;;;;5084819;28;20421;-60
2022/04/24 04:50:17;;;;;;;10.50;7.93;;;;;;;;;;5064506;28;20032;-60
2022/04/24 04:52:44;;;;;;;9.77;7.05;;;;;;;;;;5064436;28;20032;-60
2022/04/24 04:55:10;;;;;;;12.77;8.07;;;;;;;;;;5065542;28;20059;-60
2022/04/24 04:57:36;;;;;;;9.60;7.75;;;;;;;;;;5079803;28;20161;-60
2022/04/24 05:00:05;;;;;;;14.13;8.93;;;;;;;;;;5083174;28;20043;-59
2022/04/24 05:02:31;;;;;;;10.65;8.05;;;;;;;;;;5083836;28;20047;-60
2022/04/24 05:05:00;;;;;;;9.43;6.85;;;;;;;;;;5083372;28;20051;-59
2022/04/24 05:07:26;;;;;;;9.30;7.43;;;;;;;;;;5074768;28;20075;-58
2022/04/24 05:09:52;;;;;;;9.60;7.15;;;;;;;;;;5061888;28;20102;-60
2022/04/24 05:12:17;;;;;;;9.23;7.57;;;;;;;;;;5066070;28;20052;-57
2022/04/24 05:14:43;;;;;;;11.10;8.00;;;;;;;;;;5064091;28;20036;-60
2022/04/24 05:17:09;;;;;;;8.80;6.60;;;;;;;;;;5062794;28;20080;-56
2022/04/24 05:19:35;;;;;;;13.70;7.45;;;;;;;;;;5064129;28;20040;-60
2022/04/24 05:22:01;;;;;;;12.10;7.32;;;;;;;;;;5065957;28;20040;-61
2022/04/24 05:24:27;;;;;;;9.93;7.00;;;;;;;;;;5083474;28;20125;-61
2022/04/24 05:26:54;;;;;;;13.88;7.32;;;;;;;;;;5085173;28;20486;-63
2022/04/24 05:29:20;;;;;;;14.10;8.15;;;;;;;;;;5084621;28;20040;-63
2022/04/24 05:31:46;;;;;;;12.48;7.60;;;;;;;;;;5082133;28;20051;-62
2022/04/24 05:34:11;;;;;;;9.52;7.47;;;;;;;;;;5083588;28;20048;-61
2022/04/24 05:36:38;;;;;;;11.68;6.63;;;;;;;;;;5083706;28;20040;-62
2022/04/24 05:39:04;;;;;;;10.20;7.40;;;;;;;;;;5083710;28;20143;-62
2022/04/24 05:41:30;;;;;;;11.30;7.38;;;;;;;;;;5083859;28;20123;-61
2022/04/24 05:43:56;;;;;;;9.57;6.97;;;;;;;;;;5083775;28;20109;-62
2022/04/24 05:46:21;;;;;;;11.70;7.18;;;;;;;;;;5067300;28;20044;-62
2022/04/24 05:48:48;;;;;;;9.18;6.90;;;;;;;;;;5067994;28;20078;-62
2022/04/24 05:51:14;;;;;;;10.60;6.35;;;;;;;;;;5083902;28;20063;-62
2022/04/24 05:53:40;;;;;;;10.13;6.57;;;;;;;;;;5081997;28;20063;-63
2022/04/24 05:56:06;;;;;;;10.70;7.13;;;;;;;;;;5084022;28;20048;-61
2022/04/24 05:58:32;;;;;;;8.75;7.00;;;;;;;;;;5084227;28;20127;-62
2022/04/24 06:00:58;;;;;;;9.35;6.57;;;;;;;;;;5085203;28;20044;-62
2022/04/24 06:03:24;;;;;;;8.77;6.65;;;;;;;;;;5087899;28;20040;-62
2022/04/24 06:05:50;;;;;;;10.63;7.28;;;;;;;;;;5086557;28;20532;-62
2022/04/24 06:08:16;;;;;;;9.90;6.85;;;;;;;;;;5087693;28;20081;-63
2022/04/24 06:10:43;;;;;;;8.57;6.78;;;;;;;;;;5071086;28;20520;-62
2022/04/24 06:13:09;;;;;;;10.55;6.88;;;9.00;99.90;;;;;;5072903;28;20084;-62
2022/04/24 06:15:35;;;;;;;9.77;7.55;;;;;;;;;;5072684;28;20528;-62
2022/04/24 06:18:00;;;;;;;10.60;6.43;;;;;;;;;;5072894;28;20047;-62
2022/04/24 06:20:28;;;;;;;8.93;6.70;;;9.30;99.90;;;;;;5072763;28;20517;-62
2022/04/24 06:22:55;;;;;;;11.95;7.40;;;9.10;99.90;;;;;;5074282;28;20123;-62
2022/04/24 06:25:22;;;;;;;11.70;7.85;;;9.30;99.90;;;;;;5093009;28;20131;-62
2022/04/24 06:27:49;;;;;;;10.27;7.25;;;9.40;99.90;;;;;;5093009;28;20043;-62
2022/04/24 06:30:16;;;;;;;9.00;6.47;;;9.40;99.90;;;;;;5091419;28;20044;-62
2022/04/24 06:32:43;;;;;;;8.27;6.30;;;9.50;99.90;;;;;;5082322;28;20115;-63
2022/04/24 06:35:11;;;;;;;10.43;7.32;;;9.70;99.90;;;;;;5073985;28;20045;-62
2022/04/24 06:37:42;;;;;;;9.70;6.88;;;10.10;99.90;;;;;;5073274;28;20049;-62
2022/04/24 06:40:10;;;;;;;10.05;6.60;;;10.30;99.90;;;;;;5072133;28;20041;-64
2022/04/24 06:42:49;;;;;;;8.55;7.03;;;10.60;99.90;;;;;;5083511;28;20547;-63
2022/04/24 06:45:15;;;;;;;9.70;7.57;;;11.00;99.90;;;;;;5091772;28;20047;-63
2022/04/24 06:47:42;;;;;;;9.10;6.35;;;11.20;99.90;;;;;;5079760;28;20089;-62
2022/04/24 06:50:08;;;;;;;9.38;7.05;;;11.20;99.90;;;;;;5090822;28;20054;-63
2022/04/24 06:52:33;;;;;;;10.93;6.20;;;;;;;;;;5091221;28;20040;-63
2022/04/24 06:55:00;;;;;;;10.25;6.45;;;11.60;99.90;;;;;;5078707;28;20056;-63
2022/04/24 06:57:26;;;;;;;10.32;6.70;;;11.70;99.90;;;;;;5083503;28;20044;-63
2022/04/24 06:59:52;;;;;;;10.20;6.57;;;;;;;;;;5075169;28;20046;-62
2022/04/24 07:02:18;;;;;;;9.55;6.80;;;;;;;;;;5071613;28;20090;-63
2022/04/24 07:04:43;;;;;;;9.23;7.05;;;11.70;99.90;;;;;;5077383;28;20741;-63
2022/04/24 07:07:09;;;;;;;13.68;7.18;;;;;;;;;;5079217;28;20067;-62
2022/04/24 07:09:35;;;;;;;10.35;6.20;;;12.00;99.90;;;;;;5087040;28;20123;-63
2022/04/24 07:12:00;;;;;;;8.27;5.90;;;12.10;99.90;;;;;;5090453;28;20048;-63
2022/04/24 07:14:26;;;;;;;9.45;6.20;;;12.10;99.90;;;;;;5090438;28;20493;-63
2022/04/24 07:16:52;;;;;;;10.15;7.07;;;;;;;;;;5089530;28;20431;-62
2022/04/24 07:19:18;;;;;;;7.95;5.80;;;;;;;;;;5087985;28;20084;-63
2022/04/24 07:21:43;;;;;;;7.30;6.43;;;11.90;99.90;;;;;;5085911;28;20462;-63
2022/04/24 07:24:09;;;;;;;8.13;6.03;;;;;;;;;;5087979;28;20112;-63
2022/04/24 07:26:35;;;;;;;7.95;6.32;;;;;;;;;;5086737;28;20040;-61
2022/04/24 07:29:01;;;;;;;10.15;6.18;;;;;;;;;;5088204;28;20044;-63
2022/04/24 07:31:28;;;;;;;10.38;5.93;;;;;;;;;;5088085;28;20044;-61
2022/04/24 07:33:56;;;;;;;10.30;6.40;;;;;;;;;;5087634;28;20075;-62
2022/04/24 07:36:22;;;;;;;7.82;6.15;;;;;;;;;;5086031;28;20048;-64
2022/04/24 07:38:50;;;;;;;10.63;5.57;;;;;;;;;;5070457;28;20032;-63
2022/04/24 07:41:16;;;;;;;7.88;5.55;;;12.10;99.90;;;;;;5068539;28;20059;-62
2022/04/24 07:43:48;;;;;;;7.47;5.10;;;;;;;;;;5066432;28;20044;-62
2022/04/24 07:46:14;;;;;;;9.55;5.22;;;;;;;;;;5080046;28;20516;-62
2022/04/24 07:48:40;;;;;;;7.43;5.47;;;;;;;;;;5082522;28;20161;-63
2022/04/24 07:51:06;;;;;;;5.45;4.30;;;;;;;;;;5081485;28;20040;-64
2022/04/24 07:53:32;;;;;;;9.40;4.60;;;;;;;;;;5084196;28;20590;-63
2022/04/24 07:55:58;;;;;;;6.53;4.45;;;;;;;;;;5085556;28;20040;-63
2022/04/24 07:58:24;;;;;;;7.45;5.78;;;;;;;;;;5084595;28;20050;-63
2022/04/24 08:00:50;;;;;;;6.88;4.43;;;;;;;;;;5083819;28;20044;-63
2022/04/24 08:03:16;;;;;;;7.80;4.20;;;;;;;;;;5066871;28;20105;-63
2022/04/24 08:05:48;;;;;;;4.82;3.70;;;12.50;99.90;;;;;;5084563;28;20044;-63
2022/04/24 08:08:15;;;;;;;6.22;3.53;;;12.40;99.90;;;;;;5085983;28;20316;-64
2022/04/24 08:10:43;;;;;;;6.00;3.75;;;12.50;99.90;;;;;;5082989;28;20082;-63
2022/04/24 08:13:09;;;;;;;5.30;3.30;;;;;;;;;;5083202;28;20388;-63
2022/04/24 08:15:36;;;;;;;7.43;3.63;;;12.60;99.90;;;;;;5083243;28;20048;-63
2022/04/24 08:18:03;;;;;;;5.38;3.15;;;12.70;99.90;;;;;;5086748;28;20115;-62
2022/04/24 08:20:31;;;;;;;6.47;2.95;;;12.70;99.90;;;;;;5085173;28;20478;-64
2022/04/24 08:22:59;;;;;;;6.25;2.72;;;;;;;;;;5085628;28;20050;-61
2022/04/24 08:25:25;;;;;;;3.78;2.63;;;;;;;;;;5085506;28;20119;-64
2022/04/24 08:27:53;;;;;;;5.35;2.28;;;12.90;99.90;;;;;;5085470;28;20052;-63
2022/04/24 08:30:21;;;;;;;4.38;2.72;;;13.10;99.90;;;;;;5086888;28;20130;-64
2022/04/24 08:32:48;;;;;;;6.20;2.53;;;13.20;99.90;;;;;;5086733;28;20048;-64
2022/04/24 08:35:16;;;;;;;4.78;2.40;;;13.10;99.90;;;;;;5067326;28;20410;-63
2022/04/24 08:37:42;;;;;;;3.05;2.58;;;13.20;99.90;;;;;;5086459;28;20486;-63
2022/04/24 08:40:11;;;;;;;8.57;3.35;;;13.20;99.90;;;;;;5086054;28;20395;-63
2022/04/24 08:42:36;;;;;;;3.05;2.70;;;13.20;99.90;;;;;;5069373;28;20487;-65
2022/04/24 08:45:03;;;;;;;4.78;2.30;;;13.20;99.90;;;;;;5070458;28;20043;-63
2022/04/24 08:47:29;;;;;;;4.97;2.22;;;;;;;;;;5065339;28;20048;-63
2022/04/24 08:49:57;;;;;;;2.90;1.83;;;13.80;99.90;;;;;;5080882;28;20413;-63
2022/04/24 08:52:24;;;;;;;4.40;2.20;;;13.70;99.90;;;;;;5078238;28;20044;-63
2022/04/24 08:54:51;;;;;;;4.05;2.28;;;13.50;99.90;;;;;;5069279;28;20060;-64
2022/04/24 08:57:17;;;;;;;6.60;3.13;;;13.70;99.90;;;;;;5075375;28;20036;-62
2022/04/24 08:59:43;;;;;;;4.78;1.88;;;;;;;;;;5081738;28;20047;-62
2022/04/24 09:02:09;;;;;;;3.05;2.17;;;;;;;;;;5077380;28;20040;-62
2022/04/24 09:04:36;;;;;;;3.70;2.45;;;14.10;99.90;;;;;;5071900;28;20424;-62
2022/04/24 09:07:07;;;;;;;7.55;3.08;;;14.20;99.90;;;;;;5073356;28;20055;-62
2022/04/24 09:09:42;;;;;;;5.10;2.80;;;14.40;99.90;;;;;;5065629;28;20043;-62
2022/04/24 09:12:08;;;;;;;10.75;3.55;;;;;;;;;;5079987;28;20048;-62
2022/04/24 09:14:34;;;;;;;7.43;3.03;;;;;;;;;;5066218;28;20048;-65
2022/04/24 09:17:07;;;;;;;4.40;2.53;;;14.40;99.90;;;;;;5066543;28;20290;-62
2022/04/24 09:19:33;;;;;;;5.15;2.80;;;14.50;99.90;;;;;;5067330;28;20556;-62
2022/04/24 09:22:05;;;;;;;6.93;2.50;;;14.70;99.90;;;;;;5065261;28;20118;-62
2022/04/24 09:24:41;;;;;;;4.93;2.55;;;14.50;99.90;;;;;;5066246;28;20489;-62
2022/04/24 09:27:07;;;;;;;6.63;3.10;;;14.40;99.90;;;;;;5081249;28;20054;-62
2022/04/24 09:29:33;;;;;;;5.28;2.55;;;;;;;;;;5073569;28;20052;-62
2022/04/24 09:32:00;;;;;;;4.63;2.67;;;;;;;;;;5067004;28;20075;-62
2022/04/24 09:34:33;;;;;;;5.70;2.83;;;14.60;99.90;;;;;;5067713;28;20456;-62
2022/04/24 09:37:00;;;;;;;4.30;2.78;;;15.00;99.90;;;;;;5069845;28;20045;-62
2022/04/24 09:39:28;;;;;;;6.70;3.83;;;14.90;99.90;;;;;;5067054;28;20036;-62
2022/04/24 09:42:10;;;;;;;5.78;3.08;;;14.90;99.90;;;;;;5071737;28;20504;-62
2022/04/24 09:44:50;;;;;;;4.82;2.92;;;15.50;99.90;;;;;;5079982;28;20036;-62
2022/04/24 09:47:26;;;;;;;5.00;2.40;;;15.30;99.90;;;;;;5077641;28;20142;-62
2022/04/24 09:49:52;;;;;;;7.63;3.72;;;15.50;99.90;;;;;;5076298;28;20164;-62
2022/04/24 09:52:23;;;;;;;6.53;2.25;;;15.50;99.90;;;;;;5067554;28;20051;-62
2022/04/24 09:54:51;;;;;;;7.13;3.17;;;15.40;99.90;;;;;;5066710;28;20053;-62
2022/04/24 09:57:20;;;;;;;5.20;2.85;;;15.50;99.90;;;;;;5067645;28;20067;-62
2022/04/24 09:59:47;;;;;;;5.50;3.25;;;15.40;99.90;;;;;;5084421;28;20037;-62
2022/04/24 10:02:15;;;;;;;3.17;2.50;;;15.60;99.90;;;;;;5070902;28;20068;-62
2022/04/24 10:04:42;;;;;;;5.55;3.17;;;15.50;99.90;;;;;;5068478;28;20048;-62
2022/04/24 10:07:13;;;;;;;7.32;2.90;;;15.80;99.90;;;;;;5066067;28;20053;-62
2022/04/24 10:09:40;;;;;;;5.43;2.45;;;15.80;99.90;;;;;;5067905;28;20568;-62
2022/04/24 10:12:21;;;;;;;4.55;2.75;;;15.80;99.90;;;;;;5066524;28;20191;-62
2022/04/24 10:14:54;;;;;;;2.83;2.35;;;15.90;99.90;;;;;;5066777;28;20463;-62
2022/04/24 10:17:44;;;;;;;4.45;2.38;;;16.20;99.90;;;;;;5064401;28;20045;-64
2022/04/24 10:20:53;;;;;;;3.85;2.20;;;16.10;99.90;;;;;;5067653;28;20068;-63
2022/04/24 10:23:48;;;;;;;7.65;2.30;;;16.20;99.90;;;;;;5066300;28;20048;-64
2022/04/24 10:26:19;;;;;;;3.25;2.08;;;16.20;99.90;;;;;;5070452;28;20060;-65
2022/04/24 10:28:46;;;;;;;3.92;2.45;;;16.10;99.90;;;;;;5082933;28;20045;-65
2022/04/24 10:31:12;;;;;;;2.90;2.00;;;15.90;99.90;;;;;;5066808;28;20425;-63
2022/04/24 10:33:40;;;;;;;4.82;1.92;;;16.00;99.90;;;;;;5079044;28;20101;-63
2022/04/24 10:36:05;;;;;;;5.65;2.30;;;16.00;99.90;;;;;;5087529;28;20040;-63
2022/04/24 10:38:33;;;;;;;4.43;2.30;;;16.10;99.90;;;;;;5086314;28;20516;-63
2022/04/24 10:41:24;;;;;;;3.55;2.50;;;16.10;99.90;;;;;;5082083;28;20036;-65
2022/04/24 10:43:56;;;;;;;3.25;1.88;;;16.00;99.90;;;;;;5083279;28;20481;-65
2022/04/24 10:46:31;;;;;;;3.75;2.17;;;16.10;99.90;;;;;;5072934;28;20036;-65
2022/04/24 10:49:11;;;;;;;5.45;1.88;;;16.20;99.90;;;;;;5073499;28;20059;-64
2022/04/24 10:51:39;;;;;;;5.72;2.67;;;16.20;99.90;;;;;;5070090;28;20059;-65
2022/04/24 10:54:10;;;;;;;2.45;1.92;;;16.00;99.90;;;;;;5079441;28;20059;-65
2022/04/24 10:56:37;;;;;;;4.82;2.17;;;15.90;99.90;;;;;;5073949;28;20036;-64
2022/04/24 10:59:15;;;;;;;3.15;2.00;;;15.90;99.90;;;;;;5093940;28;20048;-65
2022/04/24 11:01:43;;;;;;;6.18;2.25;;;15.90;99.90;;;;;;5093754;28;20040;-65
2022/04/24 11:04:11;;;;;;;5.53;2.65;;;15.80;99.90;;;;;;5094978;28;20082;-65
2022/04/24 11:06:37;;;;;;;5.35;2.25;;;15.90;99.90;;;;;;5093673;28;20131;-65
2022/04/24 11:09:13;;;;;;;8.07;2.17;;;16.00;99.90;;;;;;5094857;28;20042;-65
2022/04/24 11:11:56;;;;;;;4.15;2.10;;;15.70;99.90;;;;;;5089897;28;20033;-64
2022/04/24 11:14:23;;;;;;;4.63;2.05;;;15.90;99.90;;;;;;5073590;28;20086;-64
2022/04/24 11:16:51;;;;;;;5.63;2.00;;;15.80;99.90;;;;;;5074392;28;20063;-65
2022/04/24 11:19:28;;;;;;;3.85;2.20;;;15.90;99.90;;;;;;5074112;28;20036;-65
2022/04/24 11:21:55;;;;;;;3.80;2.00;;;16.10;99.90;;;;;;5086721;28;20055;-65
2022/04/24 11:24:21;;;;;;;4.82;1.92;;;15.80;99.90;;;;;;5072334;28;20457;-65
2022/04/24 11:26:48;;;;;;;2.63;1.40;;;15.80;99.90;;;;;;5072555;28;20073;-65
2022/04/24 11:29:14;;;;;;;3.45;1.75;;;;;;;;;;5074073;28;20098;-65
2022/04/24 11:31:52;;;;;;;3.53;1.45;;;16.10;99.90;;;;;;5076886;28;20048;-64
2022/04/24 11:34:19;;;;;;;4.45;1.65;;;16.10;99.90;;;;;;5077963;28;20493;-64
2022/04/24 11:36:46;;;;;;;2.95;2.05;;;16.20;99.90;;;;;;5084399;28;20521;-63
2022/04/24 11:39:12;;;;;;;4.13;1.83;;;16.20;99.90;;;;;;5071411;28;20044;-64
2022/04/24 11:41:39;;;;;;;6.72;2.05;;;16.00;99.90;;;;;;5071089;28;20036;-64
2022/04/24 11:52:23;;;;;;;8.53;2.30;;;15.40;99.90;;;;;;5086812;28;20043;-63
2022/04/24 11:54:51;;;;;;;3.78;2.28;;;;;;;;;;5069456;28;20052;-63
2022/04/24 11:57:17;;;;;;;3.45;1.88;;;15.60;99.90;;;;;;5068596;28;20066;-63
2022/04/24 11:59:50;;;;;;;2.58;1.80;;;15.90;99.90;;;;;;5076413;28;20044;-63
2022/04/24 12:02:16;;;;;;;6.85;2.50;;;;;;;;;;5071234;28;20055;-61
2022/04/24 12:04:43;;;;;;;5.43;2.17;;;;;;;;;;5079489;28;20125;-63
2022/04/24 12:07:09;;;;;;;3.25;2.20;;;15.80;99.90;;;;;;5079491;28;20059;-63
2022/04/24 12:09:36;;;;;;;5.22;1.88;;;15.60;99.90;;;;;;5078403;28;20036;-62
2022/04/24 12:12:06;;;;;;;4.00;1.60;;;15.70;99.90;;;;;;5075007;28;20054;-63
2022/04/24 12:14:33;;;;;;;3.03;1.80;;;;;;;;;;5078959;28;20485;-64
2022/04/24 12:17:07;;;;;;;4.95;2.20;;;15.50;99.90;;;;;;5085306;28;20040;-64
2022/04/24 12:19:34;;;;;;;2.53;1.83;;;15.50;99.90;;;;;;5083559;28;20044;-62
2022/04/24 12:22:11;;;;;;;3.42;1.85;;;15.60;99.90;;;;;;5082070;28;20044;-64
2022/04/24 12:24:42;;;;;;;4.20;2.38;;;15.90;99.90;;;;;;5074454;28;20054;-64
2022/04/24 12:27:09;;;;;;;5.53;2.30;;;;;;;;;;5077531;28;20544;-66
2022/04/24 12:29:43;;;;;;;4.90;2.28;;;16.10;99.90;;;;;;5085290;28;20439;-64
2022/04/24 12:32:12;;;;;;;4.80;2.53;;;16.00;99.90;;;;;;5073149;28;20159;-64
2022/04/24 12:34:45;;;;;;;8.20;2.60;;;15.70;99.90;;;;;;5070498;28;20048;-64
2022/04/24 12:37:12;;;;;;;6.18;2.65;;;15.70;99.90;;;;;;5067174;28;20093;-62
2022/04/24 12:39:37;;;;;;;4.13;2.22;;;15.60;99.90;;;;;;5079458;28;20036;-61
2022/04/24 12:42:17;;;;;;;8.13;2.75;;;15.80;99.90;;;;;;5086096;28;20433;-63
2022/04/24 12:44:43;;;;;;;5.10;2.78;;;16.00;99.90;;;;;;5085882;28;20044;-63
2022/04/24 12:47:09;;;;;;;5.88;2.55;;;16.20;99.90;;;;;;5100964;28;20051;-62
2022/04/24 12:49:35;;;;;;;7.80;2.70;;;16.10;99.90;;;;;;5074705;28;20502;-61
2022/04/24 12:52:00;;;;;;;4.80;2.70;;;16.20;99.90;;;;;;5078991;28;20414;-62
2022/04/24 12:54:26;;;;;;;3.65;3.05;;;16.30;99.90;;;;;;5090233;28;20052;-63
2022/04/24 12:56:52;;;;;;;3.47;2.38;;;16.40;99.90;;;;;;5092696;28;20055;-63
2022/04/24 12:59:17;;;;;;;4.25;2.60;;;16.40;99.90;;;;;;5091845;28;20072;-63
2022/04/24 13:01:44;;;;;;;6.00;3.10;;;16.40;99.90;;;;;;5091308;28;20126;-63
2022/04/24 13:04:10;;;;;;;5.97;3.55;;;16.50;99.90;;;;;;5091481;28;20046;-62
2022/04/24 13:06:36;;;;;;;6.57;3.63;;;16.50;99.90;;;;;;5086408;28;20124;-63
2022/04/24 13:09:03;;;;;;;20.50;3.88;;;16.50;99.90;;;;;;5078710;28;20075;-64
2022/04/24 13:11:29;;;;;;;4.82;3.08;;;16.40;99.90;;;;;;5092317;28;20044;-64
2022/04/24 13:13:54;;;;;;;12.63;4.25;;;16.40;99.90;;;;;;5092065;28;20401;-64
2022/04/24 13:19:09;;;;;;;7.57;3.63;;;16.00;99.90;;;;;;5092121;28;20528;-64
2022/04/24 13:21:36;;;;;;;5.95;3.35;;;16.00;99.90;;;;;;5090355;28;20043;-64
2022/04/24 13:24:02;;;;;;;7.25;3.65;;;15.90;99.90;;;;;;5090590;28;20498;-63
2022/04/24 13:26:27;;;;;;;5.75;3.60;;;16.20;99.90;;;;;;5092421;28;20089;-64
2022/04/24 13:28:53;;;;;;;3.75;2.28;;;16.10;99.90;;;;;;5092196;28;20405;-64
2022/04/24 13:31:18;;;;;;;7.80;3.15;;;16.20;99.90;;;;;;5092211;28;20123;-64
2022/04/24 13:33:44;;;;;;;5.13;2.88;;;16.10;99.90;;;;;;5078697;28;20402;-64